createdAt,value
2023-04-19T00:01:11.274Z,11.56
2023-04-19T00:03:39.502Z,11.59
2023-04-19T00:06:08.508Z,11.62
2023-04-19T00:08:35.789Z,11.63
2023-04-19T00:11:03.072Z,11.61
2023-04-19T00:13:30.416Z,11.65
2023-04-19T00:15:57.715Z,11.70
2023-04-19T00:18:24.985Z,11.69
2023-04-19T00:20:52.308Z,11.70
2023-04-19T00:23:19.614Z,11.73
2023-04-19T00:25:46.939Z,11.75
2023-04-19T00:28:14.192Z,11.74
2023-04-19T00:30:43.521Z,11.70
2023-04-19T00:33:12.953Z,11.68
2023-04-19T00:35:41.325Z,11.45
2023-04-19T00:38:08.635Z,11.58
2023-04-19T00:40:37.679Z,11.55
2023-04-19T00:43:05.640Z,11.49
2023-04-19T00:45:35.231Z,11.52
2023-04-19T00:48:02.720Z,11.54
2023-04-19T00:50:30.582Z,11.40
2023-04-19T00:52:57.906Z,11.52
2023-04-19T00:55:26.020Z,11.48
2023-04-19T00:57:53.805Z,11.43
2023-04-19T01:00:21.131Z,11.42
2023-04-19T01:02:48.722Z,11.51
2023-04-19T01:05:16.469Z,11.43
2023-04-19T01:07:43.811Z,11.46
2023-04-19T01:10:15.122Z,11.49
2023-04-19T01:12:42.459Z,11.43
2023-04-19T01:15:11.771Z,11.44
2023-04-19T01:17:39.178Z,11.44
2023-04-19T01:20:08.134Z,11.44
2023-04-19T01:22:37.752Z,11.46
2023-04-19T01:25:06.512Z,11.49
2023-04-19T01:27:33.836Z,11.45
2023-04-19T01:30:01.143Z,11.61
2023-04-19T01:32:28.487Z,11.52
2023-04-19T01:34:56.753Z,11.57
2023-04-19T01:37:24.131Z,11.54
2023-04-19T01:39:51.436Z,11.58
2023-04-19T01:42:18.864Z,11.60
2023-04-19T01:44:46.277Z,11.50
2023-04-19T01:47:13.637Z,11.50
2023-04-19T01:49:41.134Z,11.47
2023-04-19T01:52:09.277Z,11.49
2023-04-19T01:54:36.509Z,11.47
2023-04-19T01:57:03.792Z,11.42
2023-04-19T01:59:31.530Z,11.33
2023-04-19T02:01:59.005Z,11.33
2023-04-19T02:04:26.502Z,11.33
2023-04-19T02:06:53.906Z,11.15
2023-04-19T02:09:21.253Z,11.23
2023-04-19T02:11:48.610Z,11.08
2023-04-19T02:14:16.182Z,10.98
2023-04-19T02:16:43.865Z,11.03
2023-04-19T02:19:11.448Z,10.93
2023-04-19T02:21:39.388Z,10.82
2023-04-19T02:24:07.079Z,10.75
2023-04-19T02:26:34.369Z,10.79
2023-04-19T02:29:01.739Z,10.73
2023-04-19T02:31:29.041Z,10.73
2023-04-19T02:33:56.330Z,10.52
2023-04-19T02:36:23.625Z,10.70
2023-04-19T02:38:50.955Z,10.72
2023-04-19T02:41:20.699Z,10.73
2023-04-19T02:43:48.023Z,10.67
2023-04-19T02:46:15.512Z,10.67
2023-04-19T02:48:42.819Z,10.65
2023-04-19T02:51:18.238Z,10.42
2023-04-19T02:53:45.626Z,10.55
2023-04-19T02:56:13.072Z,10.63
2023-04-19T02:58:40.528Z,10.58
2023-04-19T03:01:08.064Z,10.55
2023-04-19T03:03:35.532Z,10.47
2023-04-19T03:06:03.118Z,10.46
2023-04-19T03:08:31.694Z,10.55
2023-04-19T03:10:59.456Z,10.55
2023-04-19T03:13:26.827Z,10.57
2023-04-19T03:15:54.174Z,10.54
2023-04-19T03:18:23.297Z,10.62
2023-04-19T03:20:52.348Z,10.59
2023-04-19T03:23:19.775Z,10.63
2023-04-19T03:25:49.918Z,10.52
2023-04-19T03:28:27.636Z,10.51
2023-04-19T03:31:13.272Z,10.51
2023-04-19T03:33:41.232Z,10.50
2023-04-19T03:36:09.800Z,10.46
2023-04-19T03:38:38.790Z,10.54
2023-04-19T03:41:19.927Z,10.54
2023-04-19T03:43:48.509Z,10.55
2023-04-19T03:46:15.916Z,10.59
2023-04-19T03:48:43.678Z,10.59
2023-04-19T03:51:12.979Z,10.62
2023-04-19T03:53:40.627Z,10.65
2023-04-19T03:56:08.073Z,10.64
2023-04-19T03:58:35.393Z,10.63
2023-04-19T04:01:08.475Z,10.67
2023-04-19T04:03:36.183Z,10.70
2023-04-19T04:06:04.971Z,10.74
2023-04-19T04:08:32.296Z,10.71
2023-04-19T04:10:59.653Z,10.77
2023-04-19T04:13:27.396Z,10.84
2023-04-19T04:16:06.884Z,10.81
2023-04-19T04:18:34.984Z,10.82
2023-04-19T04:21:05.349Z,10.87
2023-04-19T04:23:35.427Z,10.83
2023-04-19T04:26:05.494Z,10.93
2023-04-19T04:28:52.215Z,10.96
2023-04-19T04:31:21.211Z,10.82
2023-04-19T04:33:48.905Z,10.85
2023-04-19T04:36:19.284Z,10.90
2023-04-19T04:38:47.991Z,10.98
2023-04-19T04:41:16.664Z,10.81
2023-04-19T04:43:58.577Z,11.10
2023-04-19T04:46:37.888Z,11.20
2023-04-19T04:49:05.565Z,11.28
2023-04-19T04:51:32.902Z,11.31
2023-04-19T04:54:00.963Z,11.33
2023-04-19T04:56:28.448Z,11.55
2023-04-19T04:58:55.986Z,11.69
2023-04-19T05:01:30.867Z,11.74
2023-04-19T05:03:58.421Z,11.71
2023-04-19T05:06:26.699Z,11.75
2023-04-19T05:08:54.566Z,11.56
2023-04-19T05:11:30.553Z,11.89
2023-04-19T05:13:57.869Z,11.94
2023-04-19T05:16:26.847Z,11.97
2023-04-19T05:18:54.417Z,12.01
2023-04-19T05:21:22.580Z,12.09
2023-04-19T05:23:53.546Z,12.10
2023-04-19T05:26:21.765Z,12.04
2023-04-19T05:28:51.030Z,12.05
2023-04-19T05:31:44.684Z,12.09
2023-04-19T05:34:51.562Z,12.08
2023-04-19T05:37:22.508Z,11.73
2023-04-19T05:39:50.373Z,11.76
2023-04-19T05:42:19.275Z,12.05
2023-04-19T05:44:54.707Z,12.31
2023-04-19T05:47:23.520Z,12.30
2023-04-19T05:50:00.406Z,12.38
2023-04-19T05:52:34.534Z,12.44
2023-04-19T05:55:04.808Z,12.40
2023-04-19T05:57:33.988Z,12.51
2023-04-19T06:00:02.424Z,12.49
2023-04-19T06:02:44.689Z,12.54
2023-04-19T06:05:14.448Z,12.42
2023-04-19T06:07:47.319Z,12.54
2023-04-19T06:10:22.307Z,12.69
2023-04-19T06:12:50.112Z,12.87
2023-04-19T06:15:17.825Z,12.89
2023-04-19T06:17:45.868Z,13.06
2023-04-19T06:20:14.268Z,13.30
2023-04-19T06:22:48.800Z,13.48
2023-04-19T06:25:16.256Z,13.58
2023-04-19T06:27:44.350Z,13.58
2023-04-19T06:30:11.907Z,13.92
2023-04-19T06:32:39.282Z,13.96
2023-04-19T06:35:07.276Z,14.20
2023-04-19T06:37:35.163Z,14.26
2023-04-19T06:40:05.526Z,14.47
2023-04-19T06:42:32.896Z,14.43
2023-04-19T06:45:01.324Z,14.61
2023-04-19T06:47:29.040Z,14.34
2023-04-19T06:49:59.928Z,14.29
2023-04-19T06:52:27.400Z,14.24
2023-04-19T06:54:58.790Z,14.34
2023-04-19T06:57:34.708Z,14.20
2023-04-19T07:00:03.509Z,14.18
2023-04-19T07:02:37.157Z,14.20
2023-04-19T07:05:05.389Z,14.46
2023-04-19T07:07:33.632Z,14.55
2023-04-19T07:10:01.079Z,14.59
2023-04-19T07:12:28.578Z,14.59
2023-04-19T07:14:56.561Z,14.66
2023-04-19T07:17:25.732Z,14.57
2023-04-19T07:19:56.590Z,14.59
2023-04-19T07:22:24.008Z,14.61
2023-04-19T07:24:52.300Z,14.46
2023-04-19T07:27:19.783Z,14.89
2023-04-19T07:29:47.290Z,14.56
2023-04-19T07:32:15.396Z,14.89
2023-04-19T07:34:47.666Z,14.98
2023-04-19T07:37:45.868Z,15.29
2023-04-19T07:40:08.296Z,15.30
2023-04-19T07:42:35.907Z,15.45
2023-04-19T07:45:17.462Z,15.23
2023-04-19T07:47:45.296Z,14.77
2023-04-19T07:50:18.694Z,15.42
2023-04-19T07:52:49.274Z,15.46
2023-04-19T07:55:46.186Z,15.65
2023-04-19T07:58:13.582Z,16.00
2023-04-19T08:00:40.943Z,16.31
2023-04-19T08:03:14.802Z,16.07
2023-04-19T08:05:42.335Z,15.84
2023-04-19T08:08:09.728Z,16.24
2023-04-19T08:10:38.789Z,16.38
2023-04-19T08:13:13.598Z,16.53
2023-04-19T08:18:11.781Z,17.37
2023-04-19T08:20:39.246Z,17.22
2023-04-19T08:23:20.463Z,17.10
2023-04-19T08:25:51.745Z,17.52
2023-04-19T08:28:19.351Z,17.66
2023-04-19T08:30:46.903Z,17.95
2023-04-19T08:33:14.299Z,18.01
2023-04-19T08:35:41.754Z,17.77
2023-04-19T08:38:09.607Z,17.37
2023-04-19T08:40:41.402Z,17.59
2023-04-19T08:43:09.154Z,17.89
2023-04-19T08:45:37.656Z,18.13
2023-04-19T08:48:09.556Z,18.18
2023-04-19T08:50:45.609Z,17.30
2023-04-19T08:53:25.560Z,17.36
2023-04-19T08:58:45.855Z,16.28
2023-04-19T09:01:32.997Z,16.18
2023-04-19T09:04:21.609Z,15.83
2023-04-19T09:06:53.065Z,15.74
2023-04-19T09:11:51.038Z,14.72
2023-04-19T09:14:19.542Z,14.55
2023-04-19T09:16:52.134Z,14.65
2023-04-19T09:22:15.376Z,14.74
2023-04-19T09:27:13.642Z,14.59
2023-04-19T09:29:41.077Z,14.87
2023-04-19T09:32:13.421Z,14.67
2023-04-19T09:34:57.158Z,14.94
2023-04-19T09:40:25.259Z,14.87
2023-04-19T09:43:26.255Z,14.70
2023-04-19T09:45:54.856Z,14.98
2023-04-19T09:48:22.909Z,14.85
2023-04-19T09:51:05.049Z,15.14
2023-04-19T09:53:36.933Z,15.27
2023-04-19T09:56:06.313Z,15.49
2023-04-19T09:58:49.615Z,15.38
2023-04-19T10:01:20.252Z,15.26
2023-04-19T10:04:10.242Z,15.21
2023-04-19T10:07:13.954Z,15.27
2023-04-19T10:10:11.914Z,15.38
2023-04-19T10:13:07.587Z,15.62
2023-04-19T10:15:50.097Z,15.80
2023-04-19T10:21:20.781Z,15.70
2023-04-19T10:23:48.163Z,15.63
2023-04-19T10:26:15.509Z,15.79
2023-04-19T10:28:43.124Z,15.89
2023-04-19T10:31:16.613Z,15.63
2023-04-19T10:33:44.084Z,15.54
2023-04-19T10:36:14.386Z,15.45
2023-04-19T10:38:49.353Z,15.80
2023-04-19T10:41:19.180Z,15.49
2023-04-19T10:43:55.696Z,15.68
2023-04-19T10:46:23.378Z,15.61
2023-04-19T10:48:54.218Z,15.54
2023-04-19T10:51:28.959Z,15.51
2023-04-19T10:53:59.936Z,15.86
2023-04-19T10:56:33.401Z,16.03
2023-04-19T10:59:03.445Z,16.09
2023-04-19T11:01:51.076Z,16.25
2023-04-19T11:04:23.242Z,16.33
2023-04-19T11:06:53.801Z,16.81
2023-04-19T11:09:27.259Z,17.19
2023-04-19T11:15:41.788Z,17.07
2023-04-19T11:18:49.891Z,17.19
2023-04-19T11:21:23.060Z,16.75
2023-04-19T11:24:33.859Z,16.70
2023-04-19T11:27:29.288Z,16.77
2023-04-19T11:30:03.871Z,17.15
2023-04-19T11:32:34.668Z,17.52
2023-04-19T11:35:11.645Z,17.85
2023-04-19T11:37:40.358Z,18.20
2023-04-19T11:40:12.017Z,18.40
2023-04-19T11:42:46.694Z,18.34
2023-04-19T11:45:31.704Z,18.12
2023-04-19T11:48:01.498Z,17.69
2023-04-19T11:50:37.638Z,17.82
2023-04-19T11:53:12.134Z,17.81
2023-04-19T11:55:40.976Z,17.73
2023-04-19T11:58:11.189Z,17.82
2023-04-19T12:00:38.651Z,17.62
2023-04-19T12:03:07.657Z,17.49
2023-04-19T12:05:35.370Z,17.50
2023-04-19T12:08:04.469Z,17.47
2023-04-19T12:10:32.835Z,17.33
2023-04-19T12:13:01.598Z,17.33
2023-04-19T12:15:44.776Z,17.35
2023-04-19T12:18:12.534Z,17.11
2023-04-19T12:21:01.354Z,17.32
2023-04-19T12:23:28.848Z,17.51
2023-04-19T12:25:56.370Z,17.74
2023-04-19T12:28:23.719Z,18.46
2023-04-19T12:30:53.124Z,18.87
2023-04-19T12:33:21.681Z,18.58
2023-04-19T12:35:50.648Z,17.98
2023-04-19T12:38:18.050Z,17.56
2023-04-19T12:40:45.537Z,17.46
2023-04-19T12:43:12.855Z,17.70
2023-04-19T12:45:40.244Z,18.28
2023-04-19T12:48:07.679Z,18.45
2023-04-19T12:50:35.336Z,19.08
2023-04-19T12:53:02.858Z,19.39
2023-04-19T12:55:30.186Z,19.69
2023-04-19T12:57:57.493Z,20.19
2023-04-19T13:00:24.870Z,20.17
2023-04-19T13:02:52.547Z,20.40
2023-04-19T13:05:19.976Z,20.71
2023-04-19T13:07:47.324Z,20.40
2023-04-19T13:10:14.730Z,19.72
2023-04-19T13:12:42.053Z,19.06
2023-04-19T13:15:10.124Z,18.67
2023-04-19T13:17:38.191Z,18.69
2023-04-19T13:20:09.563Z,18.74
2023-04-19T13:22:36.890Z,19.30
2023-04-19T13:25:04.484Z,20.23
2023-04-19T13:27:31.857Z,20.39
2023-04-19T13:29:59.236Z,20.11
2023-04-19T13:32:26.777Z,20.39
2023-04-19T13:34:54.218Z,20.60
2023-04-19T13:37:21.529Z,19.77
2023-04-19T13:39:48.895Z,19.45
2023-04-19T13:42:16.332Z,19.24
2023-04-19T13:44:44.829Z,18.73
2023-04-19T13:47:14.537Z,18.35
2023-04-19T13:49:43.023Z,18.05
2023-04-19T13:52:12.830Z,17.84
2023-04-19T13:54:40.114Z,17.80
2023-04-19T13:57:07.462Z,17.66
2023-04-19T13:59:34.771Z,17.65
2023-04-19T14:02:05.561Z,17.68
2023-04-19T14:04:33.115Z,17.67
2023-04-19T14:07:00.445Z,17.73
2023-04-19T14:09:27.797Z,17.78
2023-04-19T14:11:55.125Z,17.82
2023-04-19T14:14:23.860Z,17.39
2023-04-19T14:16:51.193Z,17.66
2023-04-19T14:19:18.543Z,17.75
2023-04-19T14:21:45.902Z,17.78
2023-04-19T14:24:13.197Z,17.71
2023-04-19T14:26:40.601Z,17.83
2023-04-19T14:29:07.911Z,17.98
2023-04-19T14:31:35.239Z,18.61
2023-04-19T14:34:02.582Z,20.05
2023-04-19T14:36:30.148Z,19.27
2023-04-19T14:38:57.430Z,19.40
2023-04-19T14:41:25.366Z,20.21
2023-04-19T14:43:52.845Z,20.18
2023-04-19T14:46:20.262Z,19.82
2023-04-19T14:48:47.700Z,19.63
2023-04-19T14:51:15.051Z,20.75
2023-04-19T14:53:42.447Z,20.99
2023-04-19T14:56:14.703Z,20.16
2023-04-19T14:58:42.237Z,19.45
2023-04-19T15:01:13.371Z,18.94
2023-04-19T15:03:41.065Z,18.65
2023-04-19T15:06:14.637Z,18.57
2023-04-19T15:08:43.199Z,18.38
2023-04-19T15:11:10.693Z,18.40
2023-04-19T15:13:38.114Z,18.15
2023-04-19T15:16:07.495Z,18.06
2023-04-19T15:18:35.283Z,18.04
2023-04-19T15:21:07.624Z,17.91
2023-04-19T15:23:34.968Z,17.68
2023-04-19T15:26:02.358Z,17.65
2023-04-19T15:28:29.730Z,17.67
2023-04-19T15:30:59.128Z,17.60
2023-04-19T15:33:26.672Z,17.64
2023-04-19T15:35:54.501Z,17.25
2023-04-19T15:38:26.023Z,17.07
2023-04-19T15:40:54.816Z,17.07
2023-04-19T15:43:22.657Z,17.24
2023-04-19T15:45:50.230Z,17.38
2023-04-19T15:48:17.768Z,17.48
2023-04-19T15:50:45.357Z,17.54
2023-04-19T15:53:12.780Z,17.55
2023-04-19T15:55:41.435Z,17.30
2023-04-19T15:58:08.722Z,17.30
2023-04-19T16:00:36.107Z,17.31
2023-04-19T16:03:03.784Z,17.23
2023-04-19T16:05:31.253Z,17.10
2023-04-19T16:08:05.384Z,17.12
2023-04-19T16:10:32.908Z,16.94
2023-04-19T16:13:01.045Z,16.82
2023-04-19T16:15:28.671Z,16.69
2023-04-19T16:17:56.081Z,16.63
2023-04-19T16:20:23.527Z,16.56
2023-04-19T16:22:51.051Z,16.38
2023-04-19T16:25:18.464Z,16.12
2023-04-19T16:27:46.371Z,16.03
2023-04-19T16:30:14.205Z,16.06
2023-04-19T16:32:41.902Z,16.04
2023-04-19T16:35:09.948Z,16.05
2023-04-19T16:37:37.370Z,16.03
2023-04-19T16:40:08.710Z,16.01
2023-04-19T16:42:36.635Z,15.93
2023-04-19T16:45:04.359Z,15.88
2023-04-19T16:47:32.034Z,15.87
2023-04-19T16:49:59.630Z,15.78
2023-04-19T16:52:36.092Z,15.85
2023-04-19T16:55:04.446Z,15.78
2023-04-19T16:57:31.919Z,15.83
2023-04-19T16:59:59.186Z,15.84
2023-04-19T17:02:27.284Z,15.72
2023-04-19T17:04:56.172Z,15.76
2023-04-19T17:07:23.624Z,15.60
2023-04-19T17:09:50.985Z,15.60
2023-04-19T17:12:18.434Z,15.51
2023-04-19T17:14:45.798Z,15.56
2023-04-19T17:17:13.135Z,15.54
2023-04-19T17:19:40.499Z,15.52
2023-04-19T17:22:07.784Z,15.43
2023-04-19T17:24:35.029Z,15.37
2023-04-19T17:27:02.701Z,15.38
2023-04-19T17:29:30.166Z,15.29
2023-04-19T17:31:57.539Z,15.38
2023-04-19T17:34:24.844Z,15.27
2023-04-19T17:36:52.173Z,15.27
2023-04-19T17:39:19.457Z,15.21
2023-04-19T17:41:46.778Z,15.17
2023-04-19T17:44:14.132Z,15.20
2023-04-19T17:46:41.541Z,15.24
2023-04-19T17:49:09.113Z,15.17
2023-04-19T17:51:36.433Z,15.11
2023-04-19T17:54:03.893Z,15.01
2023-04-19T17:56:31.515Z,14.99
2023-04-19T17:59:00.761Z,14.87
2023-04-19T18:01:29.709Z,14.74
2023-04-19T18:03:57.304Z,14.65
2023-04-19T18:06:24.900Z,14.48
2023-04-19T18:08:52.231Z,14.40
2023-04-19T18:11:19.729Z,14.46
2023-04-19T18:13:47.093Z,14.45
2023-04-19T18:16:15.860Z,14.42
2023-04-19T18:18:43.287Z,14.32
2023-04-19T18:21:10.644Z,14.32
2023-04-19T18:23:37.923Z,14.21
2023-04-19T18:26:05.289Z,14.03
2023-04-19T18:28:35.079Z,13.93
2023-04-19T18:31:02.382Z,13.84
2023-04-19T18:33:29.723Z,13.81
2023-04-19T18:35:57.906Z,13.80
2023-04-19T18:38:25.294Z,13.77
2023-04-19T18:40:52.812Z,13.68
2023-04-19T18:43:20.352Z,13.68
2023-04-19T18:45:57.341Z,13.60
2023-04-19T18:48:30.853Z,13.56
2023-04-19T18:51:00.769Z,13.51
2023-04-19T18:53:31.635Z,13.48
2023-04-19T18:55:59.052Z,13.34
2023-04-19T18:58:26.828Z,13.22
2023-04-19T19:00:54.817Z,13.19
2023-04-19T19:05:58.518Z,13.04
2023-04-19T19:08:26.174Z,13.05
2023-04-19T19:13:23.624Z,12.89
2023-04-19T19:15:50.917Z,12.96
2023-04-19T19:18:18.443Z,13.00
2023-04-19T19:20:45.850Z,12.97
2023-04-19T19:23:13.217Z,12.96
2023-04-19T19:25:40.913Z,12.88
2023-04-19T19:28:10.255Z,12.78
2023-04-19T19:30:42.839Z,12.87
2023-04-19T19:33:11.268Z,12.80
2023-04-19T19:35:39.627Z,12.71
2023-04-19T19:38:07.207Z,12.65
2023-04-19T19:40:34.751Z,12.59
2023-04-19T19:43:02.134Z,12.64
2023-04-19T19:45:32.280Z,12.58
2023-04-19T19:48:00.163Z,12.60
2023-04-19T19:53:00.035Z,12.51
2023-04-19T19:55:27.583Z,12.48
2023-04-19T20:00:44.002Z,12.39
2023-04-19T20:03:12.859Z,12.41
2023-04-19T20:05:40.537Z,12.25
2023-04-19T20:08:12.079Z,12.39
2023-04-19T20:10:40.870Z,12.21
2023-04-19T20:13:08.281Z,12.21
2023-04-19T20:15:36.501Z,12.16
2023-04-19T20:18:04.391Z,12.18
2023-04-19T20:20:31.797Z,12.15
2023-04-19T20:22:59.193Z,12.05
2023-04-19T20:25:26.893Z,11.98
2023-04-19T20:27:55.089Z,12.01
2023-04-19T20:30:22.411Z,11.96
2023-04-19T20:32:50.395Z,11.90
2023-04-19T20:35:18.251Z,11.94
2023-04-19T20:37:46.537Z,11.94
2023-04-19T20:40:15.133Z,11.83
2023-04-19T20:42:42.534Z,11.86
2023-04-19T20:45:10.695Z,11.82
2023-04-19T20:47:38.979Z,11.80
2023-04-19T20:50:07.213Z,11.83
2023-04-19T20:52:35.031Z,11.73
2023-04-19T20:55:02.409Z,11.70
2023-04-19T20:57:29.779Z,11.62
2023-04-19T20:59:57.104Z,11.60
2023-04-19T21:02:24.599Z,11.49
2023-04-19T21:04:52.055Z,11.46
2023-04-19T21:07:20.284Z,11.51
2023-04-19T21:09:47.615Z,11.46
2023-04-19T21:12:14.941Z,11.30
2023-04-19T21:14:42.238Z,11.28
2023-04-19T21:17:09.535Z,11.30
2023-04-19T21:19:37.306Z,11.13
2023-04-19T21:22:04.616Z,11.23
2023-04-19T21:24:33.209Z,11.28
2023-04-19T21:27:00.983Z,11.20
2023-04-19T21:29:28.352Z,11.17
2023-04-19T21:31:56.285Z,11.13
2023-04-19T21:34:23.750Z,11.02
2023-04-19T21:36:51.098Z,11.08
2023-04-19T21:39:18.498Z,11.04
2023-04-19T21:41:46.012Z,11.02
2023-04-19T21:44:13.262Z,10.91
2023-04-19T21:46:40.930Z,10.95
2023-04-19T21:49:08.338Z,10.84
2023-04-19T21:51:37.062Z,10.83
2023-04-19T21:54:04.415Z,10.77
2023-04-19T21:56:31.895Z,10.74
2023-04-19T21:58:59.503Z,10.70
2023-04-19T22:01:28.189Z,10.70
2023-04-19T22:03:55.769Z,10.69
2023-04-19T22:06:23.224Z,10.55
2023-04-19T22:08:50.678Z,10.59
2023-04-19T22:11:18.475Z,10.52
2023-04-19T22:13:46.247Z,10.36
2023-04-19T22:16:15.023Z,10.30
2023-04-19T22:18:42.451Z,10.39
2023-04-19T22:21:10.835Z,10.37
2023-04-19T22:23:39.306Z,10.21
2023-04-19T22:26:06.639Z,10.23
2023-04-19T22:28:35.997Z,10.21
2023-04-19T22:31:03.816Z,10.11
2023-04-19T22:33:31.105Z,10.13
2023-04-19T22:35:58.453Z,10.00
2023-04-19T22:38:25.797Z,10.11
2023-04-19T22:40:53.487Z,10.02
2023-04-19T22:43:21.453Z,10.08
2023-04-19T22:45:48.725Z,9.98
2023-04-19T22:48:15.990Z,10.01
2023-04-19T22:50:43.655Z,10.03
2023-04-19T22:53:12.840Z,10.01
2023-04-19T22:55:40.510Z,10.04
2023-04-19T22:58:08.105Z,9.81
2023-04-19T23:00:38.526Z,9.87
2023-04-19T23:03:06.946Z,9.86
2023-04-19T23:05:34.351Z,9.82
2023-04-19T23:08:04.390Z,9.78
2023-04-19T23:10:31.871Z,9.70
2023-04-19T23:12:59.404Z,9.54
2023-04-19T23:15:28.629Z,9.58
2023-04-19T23:17:56.001Z,9.58
2023-04-19T23:20:24.150Z,9.45
2023-04-19T23:22:51.771Z,9.39
2023-04-19T23:25:19.081Z,9.32
2023-04-19T23:27:46.672Z,9.23
2023-04-19T23:30:14.082Z,9.47
2023-04-19T23:32:41.489Z,9.42
2023-04-19T23:35:09.088Z,9.42
2023-04-19T23:37:37.095Z,9.23
2023-04-19T23:40:08.455Z,9.43
2023-04-19T23:42:37.350Z,9.35
2023-04-19T23:45:06.153Z,9.31
2023-04-19T23:47:34.267Z,9.34
2023-04-19T23:50:01.656Z,9.33
2023-04-19T23:52:28.912Z,9.23
2023-04-19T23:54:56.223Z,9.26
2023-04-19T23:57:23.576Z,9.12
2023-04-19T23:59:50.873Z,9.03
